createdAt,value
2022-11-27T00:01:51.987Z,30.43
2022-11-27T00:04:21.950Z,32.90
2022-11-27T00:06:55.551Z,23.57
2022-11-27T00:09:25.596Z,31.33
2022-11-27T00:11:55.472Z,30.60
2022-11-27T00:14:25.344Z,31.23
2022-11-27T00:16:55.297Z,27.73
2022-11-27T00:19:25.227Z,32.37
2022-11-27T00:21:57.999Z,28.60
2022-11-27T00:24:27.940Z,27.50
2022-11-27T00:26:57.833Z,28.23
2022-11-27T00:29:29.228Z,37.93
2022-11-27T00:31:59.544Z,35.10
2022-11-27T00:34:29.437Z,34.57
2022-11-27T00:37:02.007Z,34.53
2022-11-27T00:39:31.934Z,35.23
2022-11-27T00:42:01.866Z,33.83
2022-11-27T00:44:31.891Z,35.57
2022-11-27T00:47:02.276Z,34.43
2022-11-27T00:49:32.306Z,34.43
2022-11-27T00:52:04.752Z,31.00
2022-11-27T00:54:34.573Z,34.33
2022-11-27T00:57:04.433Z,31.13
2022-11-27T00:59:34.652Z,30.10
2022-11-27T01:02:04.616Z,30.63
2022-11-27T01:04:34.507Z,25.87
2022-11-27T01:07:07.026Z,31.00
2022-11-27T01:09:36.935Z,27.10
2022-11-27T01:12:07.665Z,22.17
2022-11-27T01:14:38.108Z,25.10
2022-11-27T01:17:08.218Z,22.93
2022-11-27T01:19:38.070Z,28.03
2022-11-27T01:22:10.642Z,20.33
2022-11-27T01:24:40.700Z,23.03
2022-11-27T01:27:10.765Z,20.93
2022-11-27T01:29:40.832Z,24.53
2022-11-27T01:32:10.691Z,17.87
2022-11-27T01:34:40.623Z,18.93
2022-11-27T01:37:13.192Z,23.03
2022-11-27T01:39:43.237Z,15.10
2022-11-27T01:42:13.772Z,23.10
2022-11-27T01:44:58.332Z,20.00
2022-11-27T01:47:47.672Z,14.17
2022-11-27T01:50:24.134Z,13.13
2022-11-27T01:53:02.830Z,17.80
2022-11-27T01:55:36.618Z,14.43
2022-11-27T01:58:10.837Z,17.23
2022-11-27T02:00:41.195Z,20.47
2022-11-27T02:03:11.228Z,16.03
2022-11-27T02:05:41.285Z,14.73
2022-11-27T02:08:17.197Z,15.43
2022-11-27T02:10:52.218Z,16.20
2022-11-27T02:13:28.705Z,16.40
2022-11-27T02:16:08.737Z,13.30
2022-11-27T02:18:46.307Z,14.87
2022-11-27T02:21:22.850Z,16.30
2022-11-27T02:24:22.477Z,17.90
2022-11-27T02:27:20.862Z,13.87
2022-11-27T02:29:57.549Z,14.63
2022-11-27T02:32:32.419Z,17.30
2022-11-27T02:35:07.406Z,18.97
2022-11-27T02:37:42.490Z,16.87
2022-11-27T02:40:16.678Z,16.03
2022-11-27T02:42:50.916Z,13.97
2022-11-27T02:45:27.881Z,13.60
2022-11-27T02:47:59.818Z,17.13
2022-11-27T02:50:33.623Z,15.53
2022-11-27T02:53:08.091Z,14.60
2022-11-27T02:55:41.075Z,18.53
2022-11-27T02:58:15.660Z,18.97
2022-11-27T03:00:50.148Z,16.57
2022-11-27T03:03:24.324Z,19.83
2022-11-27T03:05:58.355Z,17.87
2022-11-27T03:08:33.832Z,20.40
2022-11-27T03:11:06.943Z,18.20
2022-11-27T03:13:40.087Z,19.17
2022-11-27T03:16:18.507Z,16.57
2022-11-27T03:18:59.474Z,17.23
2022-11-27T03:21:35.192Z,16.60
2022-11-27T03:24:05.455Z,19.37
2022-11-27T03:26:35.499Z,18.77
2022-11-27T03:29:07.943Z,20.83
2022-11-27T03:31:40.870Z,17.43
2022-11-27T03:34:11.359Z,16.90
2022-11-27T03:36:41.339Z,19.10
2022-11-27T03:39:11.937Z,20.70
2022-11-27T03:41:49.794Z,17.87
2022-11-27T03:44:30.876Z,20.73
2022-11-27T03:47:13.138Z,16.70
2022-11-27T03:49:57.009Z,18.43
2022-11-27T03:52:33.397Z,17.00
2022-11-27T03:55:11.166Z,17.50
2022-11-27T03:57:46.325Z,15.67
2022-11-27T04:00:17.799Z,17.70
2022-11-27T04:02:53.128Z,20.03
2022-11-27T04:05:23.572Z,17.17
2022-11-27T04:07:53.524Z,18.87
2022-11-27T04:10:24.247Z,15.93
2022-11-27T04:12:54.123Z,19.50
2022-11-27T04:15:24.039Z,24.03
2022-11-27T04:17:56.520Z,21.30
2022-11-27T04:20:26.587Z,21.40
2022-11-27T04:22:56.453Z,18.03
2022-11-27T04:25:26.613Z,19.50
2022-11-27T04:27:56.485Z,16.37
2022-11-27T04:30:26.526Z,15.97
2022-11-27T04:32:58.979Z,17.07
2022-11-27T04:35:28.808Z,13.23
2022-11-27T04:37:59.670Z,18.47
2022-11-27T04:40:29.560Z,19.07
2022-11-27T04:42:59.413Z,16.33
2022-11-27T04:45:29.339Z,17.67
2022-11-27T04:48:01.775Z,20.90
2022-11-27T04:50:32.776Z,18.37
2022-11-27T04:53:02.811Z,17.43
2022-11-27T04:55:32.623Z,16.00
2022-11-27T04:58:02.477Z,19.97
2022-11-27T05:00:32.386Z,23.73
2022-11-27T05:03:04.968Z,20.40
2022-11-27T05:05:34.953Z,21.00
2022-11-27T05:08:04.759Z,17.07
2022-11-27T05:10:34.599Z,24.60
2022-11-27T05:13:04.447Z,18.93
2022-11-27T05:15:34.249Z,21.17
2022-11-27T05:18:07.033Z,20.60
2022-11-27T05:20:36.897Z,20.03
2022-11-27T05:23:06.714Z,28.27
2022-11-27T05:25:36.527Z,19.50
2022-11-27T05:28:06.632Z,16.90
2022-11-27T05:30:36.490Z,20.17
2022-11-27T05:33:08.963Z,23.53
2022-11-27T05:35:38.794Z,21.20
2022-11-27T05:38:08.986Z,25.07
2022-11-27T05:40:38.867Z,17.37
2022-11-27T05:43:08.848Z,16.37
2022-11-27T05:45:40.240Z,20.80
2022-11-27T05:48:12.720Z,19.67
2022-11-27T05:50:42.680Z,18.90
2022-11-27T05:53:12.517Z,18.43
2022-11-27T05:55:42.386Z,21.30
2022-11-27T05:58:12.235Z,23.70
2022-11-27T06:00:42.055Z,16.93
2022-11-27T06:03:14.501Z,23.63
2022-11-27T06:05:45.507Z,19.50
2022-11-27T06:08:15.344Z,19.67
2022-11-27T06:10:45.239Z,12.50
2022-11-27T06:13:15.172Z,25.53
2022-11-27T06:15:45.576Z,13.30
2022-11-27T06:18:18.023Z,17.83
2022-11-27T06:20:51.712Z,17.70
2022-11-27T06:23:22.851Z,20.17
2022-11-27T06:25:52.710Z,17.07
2022-11-27T06:28:22.525Z,21.77
2022-11-27T06:30:52.569Z,21.73
2022-11-27T06:33:25.025Z,16.87
2022-11-27T06:35:57.791Z,19.23
2022-11-27T06:38:27.632Z,18.27
2022-11-27T06:40:57.488Z,17.10
2022-11-27T06:43:27.377Z,14.10
2022-11-27T06:46:01.075Z,20.00
2022-11-27T06:48:33.879Z,14.37
2022-11-27T06:51:04.313Z,20.60
2022-11-27T06:53:35.883Z,20.90
2022-11-27T06:56:06.145Z,15.00
2022-11-27T06:58:36.083Z,18.27
2022-11-27T07:01:07.609Z,17.53
2022-11-27T07:03:40.135Z,17.13
2022-11-27T07:06:11.999Z,24.80
2022-11-27T07:08:42.330Z,15.00
2022-11-27T07:11:16.638Z,20.03
2022-11-27T07:13:46.775Z,14.90
2022-11-27T07:16:17.767Z,20.93
2022-11-27T07:18:52.095Z,18.67
2022-11-27T07:21:23.441Z,18.67
2022-11-27T07:23:56.415Z,17.70
2022-11-27T07:26:28.386Z,14.23
2022-11-27T07:28:59.006Z,19.97
2022-11-27T07:31:31.067Z,20.60
2022-11-27T07:34:06.943Z,12.60
2022-11-27T07:36:40.770Z,14.60
2022-11-27T07:39:10.709Z,13.30
2022-11-27T07:41:40.633Z,16.50
2022-11-27T07:44:10.631Z,15.93
2022-11-27T07:46:40.550Z,15.83
2022-11-27T07:49:13.105Z,16.00
2022-11-27T07:51:42.974Z,21.23
2022-11-27T07:54:13.089Z,16.10
2022-11-27T07:56:42.963Z,18.73
2022-11-27T07:59:12.872Z,15.37
2022-11-27T08:01:44.888Z,18.77
2022-11-27T08:04:18.502Z,15.43
2022-11-27T08:06:48.437Z,12.97
2022-11-27T08:09:18.422Z,17.77
2022-11-27T08:11:49.311Z,12.20
2022-11-27T08:14:19.375Z,13.90
2022-11-27T08:16:50.333Z,18.83
2022-11-27T08:19:24.305Z,16.07
2022-11-27T08:21:54.236Z,12.83
2022-11-27T08:24:24.123Z,14.77
2022-11-27T08:26:55.049Z,14.70
2022-11-27T08:29:31.194Z,17.73
2022-11-27T08:32:04.762Z,17.13
2022-11-27T08:34:37.301Z,12.83
2022-11-27T08:37:08.534Z,11.73
2022-11-27T08:39:38.693Z,14.53
2022-11-27T08:42:08.687Z,11.60
2022-11-27T08:44:39.821Z,15.27
2022-11-27T08:47:10.888Z,11.27
2022-11-27T08:49:46.230Z,9.70
2022-11-27T08:52:16.434Z,14.93
2022-11-27T08:54:47.257Z,13.70
2022-11-27T08:57:19.800Z,15.70
2022-11-27T08:59:49.726Z,12.93
2022-11-27T09:02:20.766Z,11.77
2022-11-27T09:04:54.535Z,11.43
2022-11-27T09:07:25.588Z,21.47
2022-11-27T09:09:55.692Z,13.30
2022-11-27T09:12:27.631Z,14.63
2022-11-27T09:14:57.571Z,13.20
2022-11-27T09:17:28.650Z,14.73
2022-11-27T09:20:02.229Z,13.53
2022-11-27T09:22:33.272Z,14.10
2022-11-27T09:25:04.554Z,17.38
2022-11-27T09:27:34.536Z,15.57
2022-11-27T09:30:04.558Z,11.97
2022-11-27T09:32:35.601Z,15.57
2022-11-27T09:35:09.832Z,17.50
2022-11-27T09:37:41.739Z,16.93
2022-11-27T09:40:17.804Z,12.37
2022-11-27T09:42:56.504Z,15.77
2022-11-27T09:45:28.212Z,16.77
2022-11-27T09:48:03.611Z,18.33
2022-11-27T09:50:39.532Z,12.20
2022-11-27T09:53:21.839Z,15.23
2022-11-27T09:55:56.181Z,16.67
2022-11-27T09:58:38.217Z,18.73
2022-11-27T10:01:14.931Z,14.90
2022-11-27T10:03:48.072Z,12.77
2022-11-27T10:06:29.905Z,14.50
2022-11-27T10:09:15.351Z,12.83
2022-11-27T10:11:53.112Z,12.30
2022-11-27T10:14:37.680Z,14.53
2022-11-27T10:17:15.692Z,21.13
2022-11-27T10:19:54.795Z,14.87
2022-11-27T10:22:35.892Z,15.17
2022-11-27T10:25:17.323Z,19.23
2022-11-27T10:28:00.887Z,12.97
2022-11-27T10:30:32.574Z,18.87
2022-11-27T10:33:05.449Z,14.50
2022-11-27T10:35:36.659Z,16.83
2022-11-27T10:38:16.484Z,14.40
2022-11-27T10:40:56.308Z,14.33
2022-11-27T10:43:28.666Z,14.50
2022-11-27T10:46:02.388Z,18.10
2022-11-27T10:48:35.539Z,13.80
2022-11-27T10:51:05.562Z,13.07
2022-11-27T10:53:43.085Z,12.47
2022-11-27T10:56:39.875Z,14.10
2022-11-27T10:59:14.534Z,13.70
2022-11-27T11:01:46.792Z,12.20
2022-11-27T11:04:36.876Z,11.40
2022-11-27T11:07:26.120Z,9.80
2022-11-27T11:09:59.819Z,14.73
2022-11-27T11:12:29.841Z,13.73
2022-11-27T11:15:05.083Z,12.17
2022-11-27T11:17:37.960Z,11.53
2022-11-27T11:20:18.366Z,12.53
2022-11-27T11:22:49.937Z,11.90
2022-11-27T11:25:24.953Z,12.87
2022-11-27T11:27:56.211Z,7.47
2022-11-27T11:30:34.767Z,10.67
2022-11-27T11:33:07.266Z,11.80
2022-11-27T11:35:39.156Z,8.53
2022-11-27T11:38:17.649Z,13.27
2022-11-27T11:41:02.461Z,11.13
2022-11-27T11:43:35.749Z,11.37
2022-11-27T11:46:22.945Z,14.23
2022-11-27T11:48:57.947Z,9.17
2022-11-27T11:52:05.384Z,11.67
2022-11-27T11:54:52.456Z,12.90
2022-11-27T11:57:51.376Z,9.10
2022-11-27T12:00:30.141Z,11.87
2022-11-27T12:03:21.623Z,14.63
2022-11-27T12:06:09.793Z,6.53
2022-11-27T12:09:02.770Z,8.60
2022-11-27T12:11:40.605Z,11.10
2022-11-27T12:14:27.437Z,13.90
2022-11-27T12:17:07.323Z,9.43
2022-11-27T12:20:05.995Z,10.93
2022-11-27T12:22:51.519Z,13.23
2022-11-27T12:25:32.803Z,11.47
2022-11-27T12:28:26.971Z,11.17
2022-11-27T12:31:08.624Z,6.60
2022-11-27T12:33:53.656Z,7.50
2022-11-27T12:36:33.969Z,11.80
2022-11-27T12:39:14.085Z,7.40
2022-11-27T12:42:03.428Z,9.97
2022-11-27T12:44:45.089Z,12.53
2022-11-27T12:47:21.984Z,10.03
2022-11-27T12:49:56.353Z,10.40
2022-11-27T12:52:28.886Z,9.27
2022-11-27T12:55:04.802Z,7.43
2022-11-27T12:57:42.687Z,9.37
2022-11-27T13:00:19.099Z,8.20
2022-11-27T13:03:02.804Z,10.17
2022-11-27T13:05:37.636Z,9.27
2022-11-27T13:08:13.572Z,12.17
2022-11-27T13:10:48.897Z,8.83
2022-11-27T13:13:25.001Z,10.20
2022-11-27T13:15:59.190Z,8.37
2022-11-27T13:18:39.502Z,6.37
2022-11-27T13:21:15.114Z,7.47
2022-11-27T13:23:46.138Z,8.33
2022-11-27T13:26:24.848Z,6.27
2022-11-27T13:28:59.918Z,10.27
2022-11-27T13:31:35.474Z,16.83
2022-11-27T13:34:12.916Z,7.50
2022-11-27T13:36:47.009Z,7.10
2022-11-27T13:39:27.378Z,7.03
2022-11-27T13:42:09.093Z,6.63
2022-11-27T13:44:44.806Z,9.20
2022-11-27T13:47:19.930Z,9.60
2022-11-27T13:50:01.759Z,6.47
2022-11-27T13:52:32.270Z,6.80
2022-11-27T13:55:05.575Z,7.47
2022-11-27T13:57:38.530Z,10.30
2022-11-27T14:00:13.318Z,9.00
2022-11-27T14:02:47.641Z,6.23
2022-11-27T14:05:23.054Z,8.00
2022-11-27T14:07:55.498Z,7.53
2022-11-27T14:10:29.660Z,7.63
2022-11-27T14:13:02.470Z,7.30
2022-11-27T14:15:34.297Z,4.03
2022-11-27T14:18:10.289Z,5.07
2022-11-27T14:20:50.772Z,6.50
2022-11-27T14:23:30.069Z,7.13
2022-11-27T14:26:14.687Z,5.57
2022-11-27T14:28:46.715Z,8.00
2022-11-27T14:31:31.668Z,3.93
2022-11-27T14:34:24.324Z,6.40
2022-11-27T14:36:57.642Z,9.50
2022-11-27T14:39:30.686Z,7.10
2022-11-27T14:42:02.385Z,7.13
2022-11-27T14:44:33.014Z,5.73
2022-11-27T14:47:06.781Z,6.70
2022-11-27T14:49:38.641Z,5.67
2022-11-27T14:52:18.113Z,9.50
2022-11-27T14:54:48.289Z,7.63
2022-11-27T14:57:28.905Z,4.53
2022-11-27T15:00:18.411Z,4.60
2022-11-27T15:02:52.047Z,7.23
2022-11-27T15:05:25.553Z,4.83
2022-11-27T15:08:00.984Z,3.53
2022-11-27T15:10:35.210Z,6.70
2022-11-27T15:13:06.153Z,6.77
2022-11-27T15:15:41.666Z,7.63
2022-11-27T15:18:17.413Z,3.70
2022-11-27T15:20:48.357Z,4.23
2022-11-27T15:23:24.489Z,9.37
2022-11-27T15:26:12.548Z,3.90
2022-11-27T15:28:45.359Z,5.93
2022-11-27T15:31:29.767Z,9.13
2022-11-27T15:34:02.609Z,3.57
2022-11-27T15:36:43.390Z,5.43
2022-11-27T15:39:23.703Z,5.17
2022-11-27T15:41:58.486Z,4.37
2022-11-27T15:44:33.186Z,5.63
2022-11-27T15:47:07.172Z,6.17
2022-11-27T15:49:37.163Z,6.87
2022-11-27T15:52:08.112Z,5.87
2022-11-27T15:54:41.990Z,4.90
2022-11-27T15:57:12.187Z,3.20
2022-11-27T15:59:42.323Z,8.87
2022-11-27T16:02:17.859Z,5.57
2022-11-27T16:04:50.182Z,7.33
2022-11-27T16:07:21.237Z,4.83
2022-11-27T16:09:54.746Z,7.80
2022-11-27T16:12:25.011Z,4.93
2022-11-27T16:14:56.082Z,4.83
2022-11-27T16:17:27.093Z,4.40
2022-11-27T16:19:58.035Z,6.33
2022-11-27T16:22:29.061Z,5.73
2022-11-27T16:25:02.644Z,3.83
2022-11-27T16:27:33.553Z,6.57
2022-11-27T16:30:03.619Z,6.53
2022-11-27T16:32:35.446Z,7.30
2022-11-27T16:35:08.620Z,8.50
2022-11-27T16:37:39.928Z,7.77
2022-11-27T16:40:15.652Z,5.23
2022-11-27T16:42:47.998Z,3.67
2022-11-27T16:45:18.129Z,4.87
2022-11-27T16:47:49.115Z,4.57
2022-11-27T16:50:22.391Z,4.47
2022-11-27T16:52:54.524Z,3.40
2022-11-27T16:55:30.702Z,4.87
2022-11-27T16:58:02.895Z,3.43
2022-11-27T17:00:33.937Z,3.53
2022-11-27T17:03:04.834Z,5.10
2022-11-27T17:05:39.882Z,6.27
2022-11-27T17:08:09.888Z,5.50
2022-11-27T17:10:44.184Z,4.13
2022-11-27T17:13:15.093Z,4.40
2022-11-27T17:15:45.301Z,8.57
2022-11-27T17:18:17.003Z,7.90
2022-11-27T17:20:46.979Z,4.50
2022-11-27T17:23:18.027Z,5.13
2022-11-27T17:25:51.576Z,6.43
2022-11-27T17:28:21.746Z,4.90
2022-11-27T17:30:52.934Z,3.83
2022-11-27T17:33:22.860Z,4.90
2022-11-27T17:35:52.731Z,5.20
2022-11-27T17:38:23.768Z,4.60
2022-11-27T17:40:56.532Z,5.00
2022-11-27T17:43:28.103Z,6.63
2022-11-27T17:45:58.169Z,5.70
2022-11-27T17:48:29.435Z,4.50
2022-11-27T17:51:02.674Z,7.10
2022-11-27T17:53:32.744Z,5.57
2022-11-27T17:56:09.313Z,3.33
2022-11-27T17:58:39.810Z,5.03
2022-11-27T18:01:18.683Z,5.10
2022-11-27T18:03:50.259Z,8.37
2022-11-27T18:06:22.858Z,6.43
2022-11-27T18:08:55.357Z,6.90
2022-11-27T18:11:30.053Z,2.87
2022-11-27T18:14:02.660Z,2.90
2022-11-27T18:16:35.222Z,6.57
2022-11-27T18:19:08.014Z,8.13
2022-11-27T18:21:39.082Z,2.83
2022-11-27T18:24:25.920Z,3.43
2022-11-27T18:27:09.216Z,6.17
2022-11-27T18:29:40.814Z,2.97
2022-11-27T18:32:13.767Z,1.93
2022-11-27T18:34:45.197Z,2.40
2022-11-27T18:37:15.895Z,3.23
2022-11-27T18:39:47.747Z,3.83
2022-11-27T18:42:21.401Z,9.10
2022-11-27T18:44:53.492Z,4.70
2022-11-27T18:47:23.713Z,6.97
2022-11-27T18:49:55.728Z,9.57
2022-11-27T18:52:26.728Z,7.20
2022-11-27T18:54:56.823Z,3.57
2022-11-27T18:57:29.500Z,4.83
2022-11-27T18:59:59.529Z,5.90
2022-11-27T19:02:29.607Z,4.50
2022-11-27T19:04:59.645Z,3.50
2022-11-27T19:07:30.698Z,3.97
2022-11-27T19:10:00.905Z,6.10
2022-11-27T19:12:33.580Z,4.80
2022-11-27T19:15:03.484Z,4.20
2022-11-27T19:17:34.931Z,3.17
2022-11-27T19:20:06.831Z,4.27
2022-11-27T19:22:36.932Z,4.10
2022-11-27T19:25:09.019Z,5.00
2022-11-27T19:27:41.785Z,6.80
2022-11-27T19:30:12.797Z,3.23
2022-11-27T19:32:43.768Z,4.70
2022-11-27T19:35:14.821Z,3.73
2022-11-27T19:37:45.013Z,5.33
2022-11-27T19:40:17.142Z,5.13
2022-11-27T19:42:55.567Z,5.37
2022-11-27T19:45:29.835Z,5.07
2022-11-27T19:48:01.278Z,6.83
2022-11-27T19:50:32.590Z,4.03
2022-11-27T19:53:05.002Z,4.60
2022-11-27T19:55:37.305Z,5.33
2022-11-27T19:58:11.244Z,3.73
2022-11-27T20:00:42.588Z,3.23
2022-11-27T20:03:14.758Z,5.93
2022-11-27T20:05:44.705Z,2.93
2022-11-27T20:08:15.174Z,6.77
2022-11-27T20:10:52.039Z,2.83
2022-11-27T20:13:24.616Z,6.30
2022-11-27T20:15:55.611Z,5.27
2022-11-27T20:18:27.965Z,5.53
2022-11-27T20:21:07.691Z,5.90
2022-11-27T20:23:39.067Z,5.43
2022-11-27T20:26:11.512Z,3.90
2022-11-27T20:28:45.571Z,5.33
2022-11-27T20:31:23.129Z,4.93
2022-11-27T20:33:54.371Z,3.80
2022-11-27T20:36:25.818Z,5.80
2022-11-27T20:38:57.886Z,4.90
2022-11-27T20:41:30.165Z,10.80
2022-11-27T20:44:04.880Z,3.20
2022-11-27T20:46:36.261Z,5.70
2022-11-27T20:49:07.334Z,5.87
2022-11-27T20:51:37.921Z,7.10
2022-11-27T20:54:13.123Z,4.27
2022-11-27T20:56:45.655Z,4.30
2022-11-27T20:59:19.235Z,4.80
2022-11-27T21:01:49.518Z,4.40
2022-11-27T21:04:23.822Z,4.50
2022-11-27T21:06:56.668Z,3.37
2022-11-27T21:09:27.971Z,4.20
2022-11-27T21:12:00.187Z,6.47
2022-11-27T21:14:33.641Z,5.97
2022-11-27T21:17:05.230Z,7.10
2022-11-27T21:19:37.155Z,7.07
2022-11-27T21:22:07.562Z,6.13
2022-11-27T21:24:37.491Z,6.33
2022-11-27T21:27:08.155Z,4.33
2022-11-27T21:29:42.010Z,5.63
2022-11-27T21:32:14.492Z,3.03
2022-11-27T21:34:44.756Z,3.90
2022-11-27T21:37:16.015Z,4.70
2022-11-27T21:39:47.038Z,5.20
2022-11-27T21:42:18.573Z,5.10
2022-11-27T21:44:51.713Z,6.53
2022-11-27T21:47:22.221Z,4.67
2022-11-27T21:49:53.042Z,5.80
2022-11-27T21:52:24.133Z,5.37
2022-11-27T21:54:55.957Z,5.10
2022-11-27T21:57:25.859Z,4.43
2022-11-27T21:59:59.451Z,5.70
2022-11-27T22:02:29.361Z,5.57
2022-11-27T22:05:00.298Z,6.70
2022-11-27T22:07:30.334Z,5.77
2022-11-27T22:10:01.246Z,4.87
2022-11-27T22:12:32.240Z,5.17
2022-11-27T22:15:05.171Z,5.63
2022-11-27T22:17:36.170Z,5.50
2022-11-27T22:20:08.402Z,7.37
2022-11-27T22:22:39.555Z,5.33
2022-11-27T22:25:10.061Z,4.60
2022-11-27T22:27:40.571Z,6.87
2022-11-27T22:30:14.122Z,5.57
2022-11-27T22:32:44.112Z,7.40
2022-11-27T22:35:14.237Z,4.83
2022-11-27T22:37:45.470Z,4.47
2022-11-27T22:40:16.979Z,4.87
2022-11-27T22:42:48.231Z,5.10
2022-11-27T22:45:21.109Z,4.60
2022-11-27T22:47:52.012Z,11.43
2022-11-27T22:50:22.902Z,3.77
2022-11-27T22:52:58.075Z,5.40
2022-11-27T22:55:28.255Z,4.20
2022-11-27T22:57:58.234Z,5.70
2022-11-27T23:00:30.795Z,4.10
2022-11-27T23:03:01.123Z,5.07
2022-11-27T23:05:31.162Z,6.00
2022-11-27T23:08:01.643Z,5.17
2022-11-27T23:10:32.056Z,4.70
2022-11-27T23:13:02.027Z,4.37
2022-11-27T23:15:35.468Z,5.67
2022-11-27T23:18:06.800Z,6.90
2022-11-27T23:20:37.861Z,4.60
2022-11-27T23:23:07.856Z,6.23
2022-11-27T23:25:37.995Z,9.03
2022-11-27T23:28:09.370Z,9.37
2022-11-27T23:30:43.063Z,4.07
2022-11-27T23:33:13.018Z,3.63
2022-11-27T23:35:43.978Z,8.43
2022-11-27T23:38:13.872Z,3.57
2022-11-27T23:40:43.823Z,7.53
2022-11-27T23:43:14.728Z,4.23
2022-11-27T23:45:47.389Z,4.67
2022-11-27T23:48:18.329Z,3.90
2022-11-27T23:50:49.274Z,3.73
2022-11-27T23:53:20.231Z,5.47
2022-11-27T23:55:50.232Z,5.10
2022-11-27T23:58:21.215Z,5.87
